createdAt,value
2023-01-11T00:01:13.987Z,3.00
2023-01-11T00:03:42.328Z,3.40
2023-01-11T00:06:11.744Z,3.13
2023-01-11T00:08:41.516Z,3.50
2023-01-11T00:11:14.614Z,3.72
2023-01-11T00:13:44.890Z,3.08
2023-01-11T00:16:14.780Z,3.63
2023-01-11T00:18:44.249Z,3.25
2023-01-11T00:21:12.582Z,2.92
2023-01-11T00:23:43.020Z,3.25
2023-01-11T00:26:13.146Z,3.45
2023-01-11T00:28:42.075Z,2.78
2023-01-11T00:31:11.325Z,4.40
2023-01-11T00:33:40.852Z,2.88
2023-01-11T00:36:11.445Z,3.42
2023-01-11T00:38:47.167Z,3.10
2023-01-11T00:41:34.572Z,2.65
2023-01-11T00:44:20.793Z,3.70
2023-01-11T00:47:06.936Z,3.58
2023-01-11T00:49:38.948Z,3.95
2023-01-11T00:54:37.883Z,3.30
2023-01-11T00:57:08.432Z,3.72
2023-01-11T00:59:37.598Z,3.58
2023-01-11T01:02:06.097Z,3.97
2023-01-11T01:04:34.189Z,3.40
2023-01-11T01:07:03.957Z,3.97
2023-01-11T01:09:32.646Z,4.72
2023-01-11T01:12:02.798Z,3.42
2023-01-11T01:14:30.124Z,3.08
2023-01-11T01:16:59.932Z,3.38
2023-01-11T01:19:29.122Z,3.50
2023-01-11T01:21:58.847Z,3.13
2023-01-11T01:24:31.691Z,2.78
2023-01-11T01:27:00.420Z,3.70
2023-01-11T01:29:30.117Z,2.78
2023-01-11T01:31:58.309Z,3.25
2023-01-11T01:34:27.356Z,3.42
2023-01-11T01:36:55.814Z,3.50
2023-01-11T01:39:23.824Z,3.17
2023-01-11T01:41:53.326Z,2.90
2023-01-11T01:44:56.832Z,3.13
2023-01-11T01:47:28.494Z,3.80
2023-01-11T01:49:58.505Z,3.00
2023-01-11T01:52:29.281Z,3.30
2023-01-11T01:55:02.042Z,3.45
2023-01-11T01:57:33.357Z,3.92
2023-01-11T02:02:30.897Z,3.85
2023-01-11T02:04:59.536Z,3.35
2023-01-11T02:07:30.766Z,4.05
2023-01-11T02:10:02.814Z,3.78
2023-01-11T02:12:36.574Z,3.63
2023-01-11T02:15:05.633Z,3.10
2023-01-11T02:17:35.947Z,3.88
2023-01-11T02:20:15.297Z,3.95
2023-01-11T02:23:09.469Z,3.15
2023-01-11T02:26:00.889Z,4.03
2023-01-11T02:28:34.181Z,2.55
2023-01-11T02:31:10.991Z,2.75
2023-01-11T02:33:43.850Z,3.25
2023-01-11T02:36:19.798Z,4.30
2023-01-11T02:38:55.969Z,2.72
2023-01-11T02:41:51.382Z,4.05
2023-01-11T02:44:43.131Z,2.72
2023-01-11T02:47:18.370Z,2.30
2023-01-11T02:49:52.903Z,2.45
2023-01-11T02:52:26.151Z,2.40
2023-01-11T02:54:57.700Z,2.40
2023-01-11T02:57:27.106Z,2.40
2023-01-11T02:59:58.188Z,2.70
2023-01-11T03:02:32.037Z,3.33
2023-01-11T03:05:00.439Z,2.28
2023-01-11T03:07:46.395Z,2.78
2023-01-11T03:10:30.062Z,2.53
2023-01-11T03:13:14.109Z,2.55
2023-01-11T03:16:01.560Z,2.38
2023-01-11T03:18:41.539Z,2.55
2023-01-11T03:21:19.863Z,2.03
2023-01-11T03:23:58.120Z,2.72
2023-01-11T03:26:35.234Z,2.33
2023-01-11T03:29:11.919Z,2.40
2023-01-11T03:31:47.295Z,2.00
2023-01-11T03:34:20.387Z,2.00
2023-01-11T03:36:53.972Z,1.95
2023-01-11T03:39:27.159Z,1.92
2023-01-11T03:41:57.501Z,2.00
2023-01-11T03:44:28.728Z,2.60
2023-01-11T03:47:04.360Z,2.97
2023-01-11T03:49:36.379Z,2.13
2023-01-11T03:52:08.038Z,2.40
2023-01-11T03:54:37.408Z,1.95
2023-01-11T03:57:08.656Z,2.03
2023-01-11T03:59:37.113Z,1.88
2023-01-11T04:02:16.272Z,2.80
2023-01-11T04:04:50.159Z,1.42
2023-01-11T04:07:19.472Z,1.60
2023-01-11T04:09:48.952Z,1.95
2023-01-11T04:12:19.911Z,1.83
2023-01-11T04:14:50.119Z,2.17
2023-01-11T04:17:19.507Z,1.58
2023-01-11T04:19:48.231Z,2.05
2023-01-11T04:22:16.933Z,1.50
2023-01-11T04:24:45.899Z,1.60
2023-01-11T04:27:14.391Z,2.13
2023-01-11T04:29:42.655Z,2.28
2023-01-11T04:32:10.935Z,1.50
2023-01-11T04:34:40.733Z,2.05
2023-01-11T04:37:09.299Z,1.45
2023-01-11T04:39:38.909Z,1.85
2023-01-11T04:42:22.243Z,1.58
2023-01-11T04:44:51.829Z,1.90
2023-01-11T04:47:22.589Z,1.80
2023-01-11T04:49:52.613Z,2.30
2023-01-11T04:52:21.309Z,1.42
2023-01-11T04:54:52.513Z,1.55
2023-01-11T04:57:20.934Z,1.20
2023-01-11T04:59:49.808Z,1.42
2023-01-11T05:02:20.956Z,2.40
2023-01-11T05:04:50.038Z,1.55
2023-01-11T05:07:20.158Z,1.92
2023-01-11T05:09:49.895Z,1.92
2023-01-11T05:12:20.803Z,1.52
2023-01-11T05:14:48.818Z,1.70
2023-01-11T05:17:17.577Z,1.15
2023-01-11T05:19:45.862Z,1.45
2023-01-11T05:22:15.831Z,2.22
2023-01-11T05:24:45.523Z,1.50
2023-01-11T05:27:13.726Z,1.38
2023-01-11T05:29:44.282Z,1.45
2023-01-11T05:32:13.535Z,2.25
2023-01-11T05:34:41.655Z,2.00
2023-01-11T05:37:13.884Z,1.42
2023-01-11T05:39:42.594Z,1.63
2023-01-11T05:42:12.894Z,1.25
2023-01-11T05:44:58.991Z,1.95
2023-01-11T05:47:27.261Z,1.30
2023-01-11T05:49:56.956Z,1.60
2023-01-11T05:52:27.589Z,1.25
2023-01-11T05:54:55.704Z,1.58
2023-01-11T05:57:25.388Z,1.52
2023-01-11T05:59:54.183Z,1.85
2023-01-11T06:02:22.758Z,2.15
2023-01-11T06:04:51.013Z,2.05
2023-01-11T06:07:19.324Z,1.33
2023-01-11T06:09:47.804Z,1.73
2023-01-11T06:12:16.670Z,1.42
2023-01-11T06:14:46.602Z,1.80
2023-01-11T06:17:17.026Z,1.75
2023-01-11T06:19:45.620Z,1.85
2023-01-11T06:22:14.081Z,1.95
2023-01-11T06:24:42.273Z,1.70
2023-01-11T06:27:11.164Z,1.48
2023-01-11T06:29:39.313Z,1.83
2023-01-11T06:32:11.528Z,1.58
2023-01-11T06:34:40.572Z,1.70
2023-01-11T06:37:09.054Z,1.60
2023-01-11T06:39:37.155Z,2.00
2023-01-11T06:42:06.821Z,1.85
2023-01-11T06:44:36.105Z,1.70
2023-01-11T06:47:05.957Z,1.95
2023-01-11T06:49:37.069Z,1.85
2023-01-11T06:52:05.170Z,1.55
2023-01-11T06:54:33.329Z,2.55
2023-01-11T06:57:01.970Z,1.90
2023-01-11T06:59:30.071Z,1.42
2023-01-11T07:01:59.143Z,2.00
2023-01-11T07:04:28.675Z,1.88
2023-01-11T07:06:58.363Z,1.77
2023-01-11T07:09:26.563Z,1.70
2023-01-11T07:11:55.911Z,1.50
2023-01-11T07:14:25.396Z,1.55
2023-01-11T07:16:54.545Z,1.55
2023-01-11T07:19:22.486Z,1.42
2023-01-11T07:21:51.981Z,2.58
2023-01-11T07:24:25.130Z,1.30
2023-01-11T07:26:56.537Z,1.60
2023-01-11T07:29:25.564Z,1.93
2023-01-11T07:31:54.923Z,2.80
2023-01-11T07:34:23.963Z,1.73
2023-01-11T07:36:52.031Z,1.73
2023-01-11T07:39:28.997Z,1.70
2023-01-11T07:42:18.214Z,2.03
2023-01-11T07:44:47.001Z,1.65
2023-01-11T07:47:15.234Z,2.10
2023-01-11T07:49:43.321Z,1.95
2023-01-11T07:52:11.612Z,1.75
2023-01-11T07:54:41.049Z,1.85
2023-01-11T07:57:10.036Z,1.75
2023-01-11T07:59:38.515Z,2.13
2023-01-11T08:02:07.092Z,1.88
2023-01-11T08:04:37.469Z,2.20
2023-01-11T08:07:05.569Z,2.53
2023-01-11T08:09:33.928Z,1.55
2023-01-11T08:12:21.151Z,1.67
2023-01-11T08:14:49.510Z,2.00
2023-01-11T08:17:18.672Z,1.75
2023-01-11T08:19:46.779Z,1.70
2023-01-11T08:22:15.238Z,1.83
2023-01-11T08:24:43.858Z,1.60
2023-01-11T08:27:14.782Z,1.83
2023-01-11T08:29:44.698Z,2.30
2023-01-11T08:32:17.092Z,2.17
2023-01-11T08:34:46.263Z,1.98
2023-01-11T08:37:16.502Z,2.47
2023-01-11T08:39:45.124Z,2.55
2023-01-11T08:42:14.568Z,2.08
2023-01-11T08:44:42.605Z,2.20
2023-01-11T08:47:10.857Z,2.53
2023-01-11T08:49:40.460Z,2.25
2023-01-11T08:52:08.672Z,2.40
2023-01-11T08:54:37.193Z,2.92
2023-01-11T08:57:05.364Z,2.30
2023-01-11T08:59:36.062Z,2.67
2023-01-11T09:02:06.445Z,2.10
2023-01-11T09:04:35.092Z,2.53
2023-01-11T09:07:04.327Z,2.53
2023-01-11T09:09:33.003Z,2.67
2023-01-11T09:12:05.495Z,3.15
2023-01-11T09:14:35.687Z,2.65
2023-01-11T09:17:03.788Z,2.42
2023-01-11T09:19:33.428Z,2.63
2023-01-11T09:22:03.184Z,2.53
2023-01-11T09:24:31.647Z,2.90
2023-01-11T09:27:01.763Z,2.90
2023-01-11T09:29:30.536Z,3.03
2023-01-11T09:32:00.109Z,2.92
2023-01-11T09:34:28.665Z,2.50
2023-01-11T09:37:00.078Z,2.90
2023-01-11T09:39:28.986Z,2.28
2023-01-11T09:42:17.329Z,2.85
2023-01-11T09:44:51.111Z,2.72
2023-01-11T09:47:27.747Z,2.78
2023-01-11T09:49:58.230Z,3.00
2023-01-11T09:52:30.897Z,2.92
2023-01-11T09:54:59.981Z,2.92
2023-01-11T09:57:43.391Z,3.00
2023-01-11T10:00:17.971Z,2.70
2023-01-11T10:03:00.023Z,2.60
2023-01-11T10:05:38.049Z,3.35
2023-01-11T10:18:34.385Z,3.13
2023-01-11T10:18:38.410Z,2.67
2023-01-11T10:20:21.363Z,3.05
2023-01-11T10:22:51.380Z,3.20
2023-01-11T10:25:25.758Z,3.00
2023-01-11T10:28:01.007Z,2.80
2023-01-11T10:30:41.946Z,2.50
2023-01-11T10:33:30.070Z,2.95
2023-01-11T10:36:27.145Z,2.78
2023-01-11T10:39:12.115Z,2.67
2023-01-11T10:41:51.487Z,3.10
2023-01-11T10:44:29.737Z,2.67
2023-01-11T10:46:59.641Z,2.88
2023-01-11T10:49:38.206Z,2.42
2023-01-11T10:52:19.897Z,2.78
2023-01-11T10:54:53.358Z,3.13
2023-01-11T10:57:29.814Z,3.20
2023-01-11T11:00:12.385Z,2.80
2023-01-11T11:05:25.319Z,2.60
2023-01-11T11:07:57.391Z,2.50
2023-01-11T11:10:31.945Z,2.55
2023-01-11T11:13:04.739Z,2.70
2023-01-11T11:15:37.690Z,2.58
2023-01-11T11:18:06.160Z,2.45
2023-01-11T11:20:35.462Z,2.17
2023-01-11T11:23:05.209Z,2.47
2023-01-11T11:25:38.134Z,2.55
2023-01-11T11:28:08.461Z,3.00
2023-01-11T11:30:38.365Z,2.40
2023-01-11T11:33:11.264Z,2.53
2023-01-11T11:35:42.539Z,2.38
2023-01-11T11:38:23.736Z,2.28
2023-01-11T11:41:07.903Z,2.33
2023-01-11T11:43:37.115Z,2.55
2023-01-11T11:46:20.552Z,2.50
2023-01-11T11:49:13.467Z,2.40
2023-01-11T11:51:43.108Z,2.30
2023-01-11T11:54:19.765Z,2.47
2023-01-11T11:56:49.112Z,2.22
2023-01-11T11:59:20.350Z,2.70
2023-01-11T12:01:53.916Z,2.53
2023-01-11T12:04:24.554Z,2.47
2023-01-11T12:07:08.425Z,1.88
2023-01-11T12:09:38.309Z,2.33
2023-01-11T12:12:07.549Z,2.85
2023-01-11T12:14:36.151Z,2.70
2023-01-11T12:17:23.468Z,2.40
2023-01-11T12:19:52.936Z,2.47
2023-01-11T12:22:25.391Z,2.08
2023-01-11T12:25:21.867Z,2.20
2023-01-11T12:27:59.445Z,2.58
2023-01-11T12:30:34.916Z,2.17
2023-01-11T12:33:20.569Z,2.03
2023-01-11T12:35:55.931Z,1.90
2023-01-11T12:38:41.903Z,2.20
2023-01-11T12:41:48.846Z,1.83
2023-01-11T12:44:27.393Z,1.80
2023-01-11T12:47:09.325Z,1.67
2023-01-11T12:49:44.431Z,2.15
2023-01-11T12:52:39.967Z,1.80
2023-01-11T12:55:20.835Z,2.05
2023-01-11T12:58:01.237Z,2.03
2023-01-11T13:00:51.062Z,2.17
2023-01-11T13:03:46.314Z,2.30
2023-01-11T13:06:17.858Z,2.05
2023-01-11T13:08:56.532Z,2.45
2023-01-11T13:11:36.475Z,2.00
2023-01-11T13:14:29.118Z,1.80
2023-01-11T13:17:02.732Z,2.13
2023-01-11T13:19:37.589Z,2.58
2023-01-11T13:22:07.387Z,2.25
2023-01-11T13:24:38.157Z,1.88
2023-01-11T13:27:08.477Z,2.08
2023-01-11T13:29:40.242Z,1.80
2023-01-11T13:32:13.630Z,2.45
2023-01-11T13:34:47.380Z,1.60
2023-01-11T13:37:20.607Z,1.80
2023-01-11T13:39:51.908Z,1.85
2023-01-11T13:42:24.289Z,2.20
2023-01-11T13:47:27.366Z,2.60
2023-01-11T13:50:00.644Z,1.85
2023-01-11T13:52:42.343Z,1.98
2023-01-11T13:55:25.126Z,2.58
2023-01-11T14:00:28.376Z,2.15
2023-01-11T14:05:34.547Z,1.92
2023-01-11T14:08:16.728Z,2.47
2023-01-11T14:10:50.286Z,1.88
2023-01-11T14:14:08.554Z,1.95
2023-01-11T14:17:00.959Z,2.17
2023-01-11T14:19:34.521Z,2.72
2023-01-11T14:22:16.061Z,2.38
2023-01-11T14:24:56.995Z,2.17
2023-01-11T14:27:54.750Z,2.70
2023-01-11T14:30:34.528Z,2.53
2023-01-11T14:33:13.737Z,2.17
2023-01-11T14:36:11.356Z,2.33
2023-01-11T14:39:01.805Z,2.30
2023-01-11T14:41:45.899Z,2.22
2023-01-11T14:44:33.259Z,2.85
2023-01-11T14:47:16.774Z,2.90
2023-01-11T14:49:59.689Z,2.40
2023-01-11T14:52:39.523Z,2.72
2023-01-11T14:55:21.741Z,2.75
2023-01-11T14:58:05.531Z,2.72
2023-01-11T15:01:06.318Z,3.13
2023-01-11T15:03:45.650Z,2.10
2023-01-11T15:06:19.647Z,2.30
2023-01-11T15:08:51.055Z,2.40
2023-01-11T15:11:34.024Z,2.55
2023-01-11T15:14:05.710Z,2.30
2023-01-11T15:16:53.824Z,2.35
2023-01-11T15:19:28.081Z,1.95
2023-01-11T15:21:59.138Z,1.80
2023-01-11T15:24:29.767Z,2.10
2023-01-11T15:27:01.545Z,1.70
2023-01-11T15:29:33.929Z,1.80
2023-01-11T15:34:50.847Z,1.80
2023-01-11T15:37:46.872Z,2.17
2023-01-11T15:40:18.789Z,1.83
2023-01-11T15:43:16.964Z,1.80
2023-01-11T15:46:44.923Z,1.73
2023-01-11T15:50:06.744Z,1.75
2023-01-11T15:53:15.175Z,1.70
2023-01-11T15:56:11.946Z,1.80
2023-01-11T15:59:18.976Z,1.80
2023-01-11T16:02:35.632Z,1.77
2023-01-11T16:05:16.131Z,1.80
2023-01-11T16:07:50.449Z,1.90
2023-01-11T16:10:46.552Z,2.13
2023-01-11T16:13:36.852Z,1.98
2023-01-11T16:16:08.681Z,1.65
2023-01-11T16:18:40.893Z,2.10
2023-01-11T16:21:13.303Z,2.10
2023-01-11T16:23:42.370Z,2.40
2023-01-11T16:26:14.747Z,2.15
2023-01-11T16:31:27.136Z,2.05
2023-01-11T16:33:55.396Z,2.25
2023-01-11T16:36:25.866Z,1.80
2023-01-11T16:38:59.748Z,2.13
2023-01-11T16:41:34.543Z,1.88
2023-01-11T16:44:07.350Z,2.75
2023-01-11T16:47:11.429Z,2.47
2023-01-11T16:49:39.793Z,2.33
2023-01-11T16:52:36.964Z,2.90
2023-01-11T16:55:15.593Z,2.88
2023-01-11T16:57:46.158Z,3.05
2023-01-11T17:00:35.856Z,2.95
2023-01-11T17:03:17.698Z,2.90
2023-01-11T17:05:55.274Z,2.85
2023-01-11T17:08:28.874Z,2.78
2023-01-11T17:10:59.050Z,2.75
2023-01-11T17:13:55.164Z,3.05
2023-01-11T17:16:27.403Z,2.63
2023-01-11T17:19:00.250Z,2.60
2023-01-11T17:21:30.407Z,2.80
2023-01-11T17:24:02.223Z,3.10
2023-01-11T17:26:34.526Z,3.13
2023-01-11T17:31:34.909Z,3.60
2023-01-11T17:34:05.718Z,4.50
2023-01-11T17:36:34.576Z,4.22
2023-01-11T17:39:03.151Z,5.60
2023-01-11T17:41:51.979Z,4.72
2023-01-11T17:44:40.107Z,4.75
2023-01-11T17:47:12.522Z,4.53
2023-01-11T17:49:40.601Z,4.97
2023-01-11T17:52:10.615Z,4.85
2023-01-11T17:54:38.803Z,5.32
2023-01-11T17:57:07.168Z,5.75
2023-01-11T17:59:38.204Z,5.75
2023-01-11T18:02:13.521Z,6.22
2023-01-11T18:04:42.270Z,5.80
2023-01-11T18:07:16.421Z,6.68
2023-01-11T18:09:49.570Z,6.38
2023-01-11T18:12:20.793Z,6.03
2023-01-11T18:14:51.041Z,6.68
2023-01-11T18:17:39.059Z,6.72
2023-01-11T18:20:33.414Z,7.70
2023-01-11T18:23:05.263Z,7.05
2023-01-11T18:25:35.688Z,7.95
2023-01-11T18:28:29.066Z,9.10
2023-01-11T18:31:02.386Z,8.40
2023-01-11T18:36:04.230Z,8.43
2023-01-11T18:38:36.501Z,9.43
2023-01-11T18:43:56.596Z,9.10
2023-01-11T18:46:24.989Z,9.10
2023-01-11T18:48:54.686Z,9.10
2023-01-11T18:51:26.907Z,10.10
2023-01-11T18:56:23.116Z,9.68
2023-01-11T18:58:51.424Z,8.75
2023-01-11T19:01:20.519Z,9.25
2023-01-11T19:03:50.142Z,9.35
2023-01-11T19:06:23.126Z,9.32
2023-01-11T19:08:51.244Z,9.23
2023-01-11T19:11:19.763Z,9.68
2023-01-11T19:13:48.484Z,9.10
2023-01-11T19:16:16.709Z,9.10
2023-01-11T19:18:46.191Z,8.82
2023-01-11T19:21:14.341Z,8.20
2023-01-11T19:23:44.035Z,9.70
2023-01-11T19:26:12.132Z,9.93
2023-01-11T19:28:41.047Z,9.05
2023-01-11T19:31:11.361Z,8.48
2023-01-11T19:33:40.220Z,9.35
2023-01-11T19:36:19.338Z,8.93
2023-01-11T19:38:49.315Z,9.77
2023-01-11T19:41:18.464Z,10.93
2023-01-11T19:43:47.209Z,10.25
2023-01-11T19:46:30.134Z,10.80
2023-01-11T19:48:59.956Z,9.60
2023-01-11T19:51:28.510Z,10.20
2023-01-11T19:53:57.928Z,10.88
2023-01-11T19:56:25.934Z,11.32
2023-01-11T19:58:54.320Z,11.30
2023-01-11T20:01:23.723Z,10.80
2023-01-11T20:03:51.909Z,9.88
2023-01-11T20:06:19.922Z,9.18
2023-01-11T20:08:48.200Z,9.52
2023-01-11T20:11:18.257Z,9.93
2023-01-11T20:13:50.645Z,9.93
2023-01-11T20:16:21.872Z,9.93
2023-01-11T20:18:53.456Z,9.05
2023-01-11T20:21:21.664Z,8.45
2023-01-11T20:23:50.104Z,8.43
2023-01-11T20:26:19.742Z,7.90
2023-01-11T20:28:51.745Z,8.40
2023-01-11T20:31:22.967Z,7.90
2023-01-11T20:33:54.933Z,8.00
2023-01-11T20:36:24.889Z,8.02
2023-01-11T20:38:54.377Z,8.40
2023-01-11T20:41:43.035Z,8.13
2023-01-11T20:44:11.907Z,8.48
2023-01-11T20:46:40.470Z,9.48
2023-01-11T20:49:09.452Z,8.80
2023-01-11T20:51:38.954Z,9.18
2023-01-11T20:54:11.488Z,8.88
2023-01-11T20:56:41.785Z,7.85
2023-01-11T21:01:38.822Z,9.88
2023-01-11T21:04:08.224Z,9.35
2023-01-11T21:06:41.270Z,9.07
2023-01-11T21:09:15.960Z,8.68
2023-01-11T21:11:52.658Z,8.70
2023-01-11T21:14:21.286Z,10.20
2023-01-11T21:16:49.548Z,8.48
2023-01-11T21:19:18.017Z,9.13
2023-01-11T21:21:48.402Z,10.05
2023-01-11T21:24:19.122Z,8.73
2023-01-11T21:26:48.900Z,8.88
2023-01-11T21:29:16.992Z,9.02
2023-01-11T21:31:45.716Z,9.88
2023-01-11T21:34:15.387Z,8.60
2023-01-11T21:36:44.722Z,8.63
2023-01-11T21:39:14.971Z,10.23
2023-01-11T21:41:58.780Z,9.73
2023-01-11T21:44:31.929Z,9.50
2023-01-11T21:47:04.378Z,9.93
2023-01-11T21:49:34.003Z,10.32
2023-01-11T21:52:02.338Z,9.60
2023-01-11T21:54:32.096Z,9.40
2023-01-11T21:57:00.421Z,9.23
2023-01-11T21:59:33.737Z,8.65
2023-01-11T22:02:03.221Z,10.25
2023-01-11T22:04:31.245Z,10.43
2023-01-11T22:07:00.202Z,10.05
2023-01-11T22:09:28.563Z,12.05
2023-01-11T22:11:56.633Z,11.25
2023-01-11T22:14:25.229Z,10.85
2023-01-11T22:16:55.001Z,10.30
2023-01-11T22:19:25.427Z,10.13
2023-01-11T22:21:54.783Z,11.38
2023-01-11T22:24:23.980Z,10.55
2023-01-11T22:26:55.715Z,10.20
2023-01-11T22:29:24.385Z,10.05
2023-01-11T22:31:57.289Z,11.77
2023-01-11T22:34:25.295Z,11.30
2023-01-11T22:36:54.681Z,9.55
2023-01-11T22:39:24.129Z,10.77
2023-01-11T22:41:52.633Z,10.40
2023-01-11T22:44:20.651Z,9.70
2023-01-11T22:46:49.283Z,9.88
2023-01-11T22:49:19.669Z,9.60
2023-01-11T22:51:48.678Z,8.82
2023-01-11T22:54:17.033Z,9.68
2023-01-11T22:56:45.177Z,9.60
2023-01-11T22:59:13.130Z,8.70
2023-01-11T23:01:44.068Z,9.02
2023-01-11T23:04:13.930Z,10.25
2023-01-11T23:06:45.102Z,8.82
2023-01-11T23:09:16.338Z,7.88
2023-01-11T23:12:06.002Z,9.68
2023-01-11T23:14:34.058Z,8.65
2023-01-11T23:17:05.192Z,9.07
2023-01-11T23:19:34.808Z,8.85
2023-01-11T23:22:04.576Z,8.57
2023-01-11T23:24:32.683Z,8.90
2023-01-11T23:27:01.082Z,9.00
2023-01-11T23:29:29.374Z,7.72
2023-01-11T23:31:57.489Z,8.00
2023-01-11T23:34:25.769Z,8.82
2023-01-11T23:36:54.004Z,7.93
2023-01-11T23:39:24.026Z,9.35
2023-01-11T23:42:06.299Z,8.57
2023-01-11T23:44:34.736Z,8.23
2023-01-11T23:47:20.573Z,8.70
2023-01-11T23:49:49.584Z,8.35
2023-01-11T23:52:18.188Z,8.75
2023-01-11T23:54:51.709Z,9.50
2023-01-11T23:57:20.935Z,7.97
2023-01-11T23:59:49.248Z,8.75
